sensor_id;sensor_type;location;lat;lon;timestamp;P1;durP1;ratioP1;P2;durP2;ratioP2
7057;SDS011;3570;43.080;25.628;2023-08-06T00:02:09;7.03;;;6.30;;
7057;SDS011;3570;43.080;25.628;2023-08-06T00:04:53;11.93;;;6.30;;
7057;SDS011;3570;43.080;25.628;2023-08-06T00:07:37;7.53;;;5.93;;
7057;SDS011;3570;43.080;25.628;2023-08-06T00:10:21;7.40;;;6.10;;
7057;SDS011;3570;43.080;25.628;2023-08-06T00:13:05;7.67;;;6.43;;
7057;SDS011;3570;43.080;25.628;2023-08-06T00:15:49;7.97;;;6.83;;
7057;SDS011;3570;43.080;25.628;2023-08-06T00:18:33;7.50;;;6.80;;
7057;SDS011;3570;43.080;25.628;2023-08-06T00:21:16;9.47;;;7.70;;
7057;SDS011;3570;43.080;25.628;2023-08-06T00:24:00;8.73;;;7.53;;
7057;SDS011;3570;43.080;25.628;2023-08-06T00:26:44;8.90;;;6.73;;
7057;SDS011;3570;43.080;25.628;2023-08-06T00:29:28;10.23;;;7.03;;
7057;SDS011;3570;43.080;25.628;2023-08-06T00:32:12;6.60;;;5.30;;
7057;SDS011;3570;43.080;25.628;2023-08-06T00:34:56;4.10;;;3.70;;
7057;SDS011;3570;43.080;25.628;2023-08-06T00:37:40;3.40;;;3.10;;
7057;SDS011;3570;43.080;25.628;2023-08-06T00:40:24;3.80;;;3.03;;
7057;SDS011;3570;43.080;25.628;2023-08-06T00:43:08;3.13;;;2.33;;
7057;SDS011;3570;43.080;25.628;2023-08-06T00:45:52;4.80;;;2.60;;
7057;SDS011;3570;43.080;25.628;2023-08-06T00:48:36;2.97;;;2.67;;
7057;SDS011;3570;43.080;25.628;2023-08-06T00:51:19;3.30;;;2.70;;
7057;SDS011;3570;43.080;25.628;2023-08-06T00:54:04;3.50;;;2.50;;
7057;SDS011;3570;43.080;25.628;2023-08-06T00:56:48;3.13;;;2.37;;
7057;SDS011;3570;43.080;25.628;2023-08-06T00:59:32;4.87;;;2.73;;
7057;SDS011;3570;43.080;25.628;2023-08-06T01:02:16;3.53;;;2.30;;
7057;SDS011;3570;43.080;25.628;2023-08-06T01:05:00;3.87;;;2.60;;
7057;SDS011;3570;43.080;25.628;2023-08-06T01:10:52;2.37;;;2.17;;
7057;SDS011;3570;43.080;25.628;2023-08-06T01:13:42;2.90;;;2.07;;
7057;SDS011;3570;43.080;25.628;2023-08-06T01:16:30;3.80;;;2.20;;
7057;SDS011;3570;43.080;25.628;2023-08-06T01:19:16;2.53;;;2.33;;
7057;SDS011;3570;43.080;25.628;2023-08-06T01:22:01;3.53;;;2.40;;
7057;SDS011;3570;43.080;25.628;2023-08-06T01:24:46;2.60;;;2.20;;
7057;SDS011;3570;43.080;25.628;2023-08-06T01:27:36;2.70;;;2.37;;
7057;SDS011;3570;43.080;25.628;2023-08-06T01:30:29;2.50;;;2.30;;
7057;SDS011;3570;43.080;25.628;2023-08-06T01:33:19;2.33;;;2.07;;
7057;SDS011;3570;43.080;25.628;2023-08-06T01:36:06;3.37;;;2.63;;
7057;SDS011;3570;43.080;25.628;2023-08-06T01:38:51;2.40;;;2.20;;
7057;SDS011;3570;43.080;25.628;2023-08-06T01:41:36;3.20;;;2.60;;
7057;SDS011;3570;43.080;25.628;2023-08-06T01:44:20;4.73;;;2.40;;
7057;SDS011;3570;43.080;25.628;2023-08-06T01:47:04;3.40;;;2.60;;
7057;SDS011;3570;43.080;25.628;2023-08-06T01:49:48;2.43;;;2.23;;
7057;SDS011;3570;43.080;25.628;2023-08-06T01:52:32;2.93;;;2.23;;
7057;SDS011;3570;43.080;25.628;2023-08-06T01:55:16;3.03;;;2.43;;
7057;SDS011;3570;43.080;25.628;2023-08-06T01:58:01;3.07;;;1.90;;
7057;SDS011;3570;43.080;25.628;2023-08-06T02:00:45;2.57;;;2.37;;
7057;SDS011;3570;43.080;25.628;2023-08-06T02:03:29;3.47;;;2.60;;
7057;SDS011;3570;43.080;25.628;2023-08-06T02:06:13;6.50;;;2.40;;
7057;SDS011;3570;43.080;25.628;2023-08-06T02:08:57;2.80;;;2.60;;
7057;SDS011;3570;43.080;25.628;2023-08-06T02:11:41;3.20;;;2.60;;
7057;SDS011;3570;43.080;25.628;2023-08-06T02:14:25;2.60;;;2.00;;
7057;SDS011;3570;43.080;25.628;2023-08-06T02:17:09;1.90;;;1.80;;
7057;SDS011;3570;43.080;25.628;2023-08-06T02:19:53;2.30;;;1.80;;
7057;SDS011;3570;43.080;25.628;2023-08-06T02:22:37;3.13;;;2.20;;
7057;SDS011;3570;43.080;25.628;2023-08-06T02:25:21;2.63;;;2.40;;
7057;SDS011;3570;43.080;25.628;2023-08-06T02:28:05;2.53;;;2.27;;
7057;SDS011;3570;43.080;25.628;2023-08-06T02:30:50;2.33;;;2.00;;
7057;SDS011;3570;43.080;25.628;2023-08-06T02:33:35;2.70;;;2.00;;
7057;SDS011;3570;43.080;25.628;2023-08-06T02:36:18;2.30;;;2.10;;
7057;SDS011;3570;43.080;25.628;2023-08-06T02:39:03;3.60;;;2.20;;
7057;SDS011;3570;43.080;25.628;2023-08-06T02:41:47;2.03;;;1.83;;
7057;SDS011;3570;43.080;25.628;2023-08-06T02:44:32;3.40;;;1.80;;
7057;SDS011;3570;43.080;25.628;2023-08-06T02:47:16;3.17;;;2.30;;
7057;SDS011;3570;43.080;25.628;2023-08-06T02:50:01;2.13;;;1.83;;
7057;SDS011;3570;43.080;25.628;2023-08-06T02:52:44;5.17;;;1.97;;
7057;SDS011;3570;43.080;25.628;2023-08-06T02:55:28;3.33;;;2.30;;
7057;SDS011;3570;43.080;25.628;2023-08-06T02:58:12;4.57;;;2.10;;
7057;SDS011;3570;43.080;25.628;2023-08-06T03:01:01;1.97;;;1.77;;
7057;SDS011;3570;43.080;25.628;2023-08-06T03:03:46;1.93;;;1.70;;
7057;SDS011;3570;43.080;25.628;2023-08-06T03:06:30;2.10;;;1.90;;
7057;SDS011;3570;43.080;25.628;2023-08-06T03:09:14;4.07;;;2.00;;
7057;SDS011;3570;43.080;25.628;2023-08-06T03:11:58;4.47;;;2.33;;
7057;SDS011;3570;43.080;25.628;2023-08-06T03:14:42;2.87;;;2.10;;
7057;SDS011;3570;43.080;25.628;2023-08-06T03:17:26;2.10;;;1.90;;
7057;SDS011;3570;43.080;25.628;2023-08-06T03:20:10;1.90;;;1.80;;
7057;SDS011;3570;43.080;25.628;2023-08-06T03:22:54;3.50;;;2.23;;
7057;SDS011;3570;43.080;25.628;2023-08-06T03:25:38;2.40;;;1.90;;
7057;SDS011;3570;43.080;25.628;2023-08-06T03:28:22;2.10;;;1.87;;
7057;SDS011;3570;43.080;25.628;2023-08-06T03:31:06;2.53;;;1.93;;
7057;SDS011;3570;43.080;25.628;2023-08-06T03:33:49;2.17;;;1.60;;
7057;SDS011;3570;43.080;25.628;2023-08-06T03:36:33;2.10;;;1.90;;
7057;SDS011;3570;43.080;25.628;2023-08-06T03:39:17;3.07;;;1.80;;
7057;SDS011;3570;43.080;25.628;2023-08-06T03:42:01;2.03;;;1.50;;
7057;SDS011;3570;43.080;25.628;2023-08-06T03:44:45;2.27;;;2.03;;
7057;SDS011;3570;43.080;25.628;2023-08-06T03:47:31;2.00;;;1.80;;
7057;SDS011;3570;43.080;25.628;2023-08-06T03:50:15;2.03;;;1.67;;
7057;SDS011;3570;43.080;25.628;2023-08-06T03:52:59;2.13;;;1.93;;
7057;SDS011;3570;43.080;25.628;2023-08-06T03:55:43;2.57;;;2.17;;
7057;SDS011;3570;43.080;25.628;2023-08-06T03:58:26;2.47;;;2.10;;
7057;SDS011;3570;43.080;25.628;2023-08-06T04:01:10;2.30;;;2.10;;
7057;SDS011;3570;43.080;25.628;2023-08-06T04:03:54;2.27;;;1.80;;
7057;SDS011;3570;43.080;25.628;2023-08-06T04:06:38;1.90;;;1.80;;
7057;SDS011;3570;43.080;25.628;2023-08-06T04:09:22;2.03;;;1.80;;
7057;SDS011;3570;43.080;25.628;2023-08-06T04:12:06;2.00;;;1.80;;
7057;SDS011;3570;43.080;25.628;2023-08-06T04:14:51;2.30;;;2.00;;
7057;SDS011;3570;43.080;25.628;2023-08-06T04:17:38;1.60;;;1.50;;
7057;SDS011;3570;43.080;25.628;2023-08-06T04:20:22;2.33;;;1.77;;
7057;SDS011;3570;43.080;25.628;2023-08-06T04:23:06;2.07;;;1.87;;
7057;SDS011;3570;43.080;25.628;2023-08-06T04:25:50;2.43;;;1.93;;
7057;SDS011;3570;43.080;25.628;2023-08-06T04:28:34;2.23;;;2.00;;
7057;SDS011;3570;43.080;25.628;2023-08-06T04:31:18;1.80;;;1.70;;
7057;SDS011;3570;43.080;25.628;2023-08-06T04:34:02;2.20;;;2.00;;
7057;SDS011;3570;43.080;25.628;2023-08-06T04:36:46;2.03;;;1.83;;
7057;SDS011;3570;43.080;25.628;2023-08-06T04:39:30;1.73;;;1.63;;
7057;SDS011;3570;43.080;25.628;2023-08-06T04:42:14;1.90;;;1.70;;
7057;SDS011;3570;43.080;25.628;2023-08-06T04:44:58;1.77;;;1.67;;
7057;SDS011;3570;43.080;25.628;2023-08-06T04:47:42;1.70;;;1.60;;
7057;SDS011;3570;43.080;25.628;2023-08-06T04:50:26;1.50;;;1.40;;
7057;SDS011;3570;43.080;25.628;2023-08-06T04:53:13;2.80;;;1.83;;
7057;SDS011;3570;43.080;25.628;2023-08-06T04:55:57;2.03;;;1.83;;
7057;SDS011;3570;43.080;25.628;2023-08-06T04:58:41;2.13;;;1.83;;
7057;SDS011;3570;43.080;25.628;2023-08-06T05:01:25;1.87;;;1.70;;
7057;SDS011;3570;43.080;25.628;2023-08-06T05:04:10;5.30;;;1.70;;
7057;SDS011;3570;43.080;25.628;2023-08-06T05:06:53;2.83;;;1.83;;
7057;SDS011;3570;43.080;25.628;2023-08-06T05:09:37;2.03;;;1.80;;
7057;SDS011;3570;43.080;25.628;2023-08-06T05:12:21;3.17;;;1.73;;
7057;SDS011;3570;43.080;25.628;2023-08-06T05:15:05;1.77;;;1.67;;
7057;SDS011;3570;43.080;25.628;2023-08-06T05:17:50;1.83;;;1.70;;
7057;SDS011;3570;43.080;25.628;2023-08-06T05:20:37;1.97;;;1.77;;
7057;SDS011;3570;43.080;25.628;2023-08-06T05:23:22;1.40;;;1.30;;
7057;SDS011;3570;43.080;25.628;2023-08-06T05:26:06;2.10;;;1.70;;
7057;SDS011;3570;43.080;25.628;2023-08-06T05:28:50;2.63;;;1.60;;
7057;SDS011;3570;43.080;25.628;2023-08-06T05:31:34;2.17;;;1.70;;
7057;SDS011;3570;43.080;25.628;2023-08-06T05:34:18;2.10;;;1.67;;
7057;SDS011;3570;43.080;25.628;2023-08-06T05:37:03;1.70;;;1.60;;
7057;SDS011;3570;43.080;25.628;2023-08-06T05:39:47;2.27;;;1.90;;
7057;SDS011;3570;43.080;25.628;2023-08-06T05:42:31;2.17;;;1.83;;
7057;SDS011;3570;43.080;25.628;2023-08-06T05:45:15;2.00;;;1.80;;
7057;SDS011;3570;43.080;25.628;2023-08-06T05:47:59;1.40;;;1.30;;
7057;SDS011;3570;43.080;25.628;2023-08-06T05:50:43;4.63;;;1.67;;
7057;SDS011;3570;43.080;25.628;2023-08-06T05:53:27;2.07;;;1.60;;
7057;SDS011;3570;43.080;25.628;2023-08-06T05:56:11;1.60;;;1.40;;
7057;SDS011;3570;43.080;25.628;2023-08-06T05:58:55;1.77;;;1.67;;
7057;SDS011;3570;43.080;25.628;2023-08-06T06:01:39;4.97;;;1.70;;
7057;SDS011;3570;43.080;25.628;2023-08-06T06:04:23;1.60;;;1.50;;
7057;SDS011;3570;43.080;25.628;2023-08-06T06:07:08;2.97;;;1.63;;
7057;SDS011;3570;43.080;25.628;2023-08-06T06:09:52;1.73;;;1.60;;
7057;SDS011;3570;43.080;25.628;2023-08-06T06:12:37;1.40;;;1.30;;
7057;SDS011;3570;43.080;25.628;2023-08-06T06:15:22;3.83;;;1.67;;
7057;SDS011;3570;43.080;25.628;2023-08-06T06:18:06;1.70;;;1.60;;
7057;SDS011;3570;43.080;25.628;2023-08-06T06:20:50;1.73;;;1.40;;
7057;SDS011;3570;43.080;25.628;2023-08-06T06:23:34;1.87;;;1.67;;
7057;SDS011;3570;43.080;25.628;2023-08-06T06:26:18;1.60;;;1.50;;
7057;SDS011;3570;43.080;25.628;2023-08-06T06:29:02;2.93;;;2.20;;
7057;SDS011;3570;43.080;25.628;2023-08-06T06:31:46;1.80;;;1.70;;
7057;SDS011;3570;43.080;25.628;2023-08-06T06:34:30;1.90;;;1.33;;
7057;SDS011;3570;43.080;25.628;2023-08-06T06:37:14;2.37;;;1.80;;
7057;SDS011;3570;43.080;25.628;2023-08-06T06:39:58;1.80;;;1.63;;
7057;SDS011;3570;43.080;25.628;2023-08-06T06:42:41;1.97;;;1.70;;
7057;SDS011;3570;43.080;25.628;2023-08-06T06:45:25;1.77;;;1.60;;
7057;SDS011;3570;43.080;25.628;2023-08-06T06:48:09;1.50;;;1.40;;
7057;SDS011;3570;43.080;25.628;2023-08-06T06:50:53;1.70;;;1.50;;
7057;SDS011;3570;43.080;25.628;2023-08-06T06:53:38;1.67;;;1.57;;
7057;SDS011;3570;43.080;25.628;2023-08-06T06:56:21;1.57;;;1.47;;
7057;SDS011;3570;43.080;25.628;2023-08-06T06:59:05;1.73;;;1.60;;
7057;SDS011;3570;43.080;25.628;2023-08-06T07:01:49;1.70;;;1.60;;
7057;SDS011;3570;43.080;25.628;2023-08-06T07:04:33;1.60;;;1.50;;
7057;SDS011;3570;43.080;25.628;2023-08-06T07:07:17;1.50;;;1.40;;
7057;SDS011;3570;43.080;25.628;2023-08-06T07:10:01;1.50;;;1.40;;
7057;SDS011;3570;43.080;25.628;2023-08-06T07:12:46;2.50;;;1.77;;
7057;SDS011;3570;43.080;25.628;2023-08-06T07:15:30;1.87;;;1.77;;
7057;SDS011;3570;43.080;25.628;2023-08-06T07:18:14;2.00;;;1.70;;
7057;SDS011;3570;43.080;25.628;2023-08-06T07:20:58;2.77;;;1.80;;
7057;SDS011;3570;43.080;25.628;2023-08-06T07:23:42;2.07;;;1.87;;
7057;SDS011;3570;43.080;25.628;2023-08-06T07:26:26;2.27;;;2.03;;
7057;SDS011;3570;43.080;25.628;2023-08-06T07:29:10;3.73;;;2.07;;
7057;SDS011;3570;43.080;25.628;2023-08-06T07:31:54;2.70;;;1.60;;
7057;SDS011;3570;43.080;25.628;2023-08-06T07:34:39;2.47;;;2.00;;
7057;SDS011;3570;43.080;25.628;2023-08-06T07:37:23;2.43;;;1.83;;
7057;SDS011;3570;43.080;25.628;2023-08-06T07:40:07;1.90;;;1.70;;
7057;SDS011;3570;43.080;25.628;2023-08-06T07:42:52;2.20;;;2.00;;
7057;SDS011;3570;43.080;25.628;2023-08-06T07:45:36;3.37;;;2.10;;
7057;SDS011;3570;43.080;25.628;2023-08-06T07:48:20;2.20;;;2.00;;
7057;SDS011;3570;43.080;25.628;2023-08-06T07:51:04;3.67;;;2.27;;
7057;SDS011;3570;43.080;25.628;2023-08-06T07:53:48;2.67;;;2.20;;
7057;SDS011;3570;43.080;25.628;2023-08-06T07:56:32;2.40;;;2.20;;
7057;SDS011;3570;43.080;25.628;2023-08-06T07:59:16;2.67;;;2.43;;
7057;SDS011;3570;43.080;25.628;2023-08-06T08:02:00;2.63;;;2.23;;
7057;SDS011;3570;43.080;25.628;2023-08-06T08:04:44;2.40;;;2.00;;
7057;SDS011;3570;43.080;25.628;2023-08-06T08:07:30;2.27;;;2.07;;
7057;SDS011;3570;43.080;25.628;2023-08-06T08:10:14;2.60;;;2.33;;
7057;SDS011;3570;43.080;25.628;2023-08-06T08:12:58;2.93;;;2.37;;
7057;SDS011;3570;43.080;25.628;2023-08-06T08:15:42;2.17;;;1.87;;
7057;SDS011;3570;43.080;25.628;2023-08-06T08:18:26;2.13;;;1.93;;
7057;SDS011;3570;43.080;25.628;2023-08-06T08:21:10;2.50;;;2.20;;
7057;SDS011;3570;43.080;25.628;2023-08-06T08:23:54;2.60;;;2.40;;
7057;SDS011;3570;43.080;25.628;2023-08-06T08:26:38;2.70;;;2.40;;
7057;SDS011;3570;43.080;25.628;2023-08-06T08:29:22;3.17;;;2.70;;
7057;SDS011;3570;43.080;25.628;2023-08-06T08:32:06;3.30;;;2.57;;
7057;SDS011;3570;43.080;25.628;2023-08-06T08:34:50;3.50;;;2.50;;
7057;SDS011;3570;43.080;25.628;2023-08-06T08:37:34;3.50;;;3.20;;
7057;SDS011;3570;43.080;25.628;2023-08-06T08:40:18;3.30;;;3.00;;
7057;SDS011;3570;43.080;25.628;2023-08-06T08:43:02;3.23;;;2.70;;
7057;SDS011;3570;43.080;25.628;2023-08-06T08:45:52;3.30;;;3.00;;
7057;SDS011;3570;43.080;25.628;2023-08-06T08:48:39;3.80;;;3.20;;
7057;SDS011;3570;43.080;25.628;2023-08-06T08:51:23;3.60;;;2.70;;
7057;SDS011;3570;43.080;25.628;2023-08-06T08:54:08;4.63;;;2.70;;
7057;SDS011;3570;43.080;25.628;2023-08-06T08:56:55;3.40;;;3.10;;
7057;SDS011;3570;43.080;25.628;2023-08-06T08:59:40;4.73;;;3.10;;
7057;SDS011;3570;43.080;25.628;2023-08-06T09:02:25;3.50;;;2.97;;
7057;SDS011;3570;43.080;25.628;2023-08-06T09:05:13;3.67;;;3.23;;
7057;SDS011;3570;43.080;25.628;2023-08-06T09:08:04;4.10;;;3.50;;
7057;SDS011;3570;43.080;25.628;2023-08-06T09:10:49;4.73;;;3.70;;
7057;SDS011;3570;43.080;25.628;2023-08-06T09:13:35;4.33;;;3.53;;
7057;SDS011;3570;43.080;25.628;2023-08-06T09:16:20;4.30;;;3.90;;
7057;SDS011;3570;43.080;25.628;2023-08-06T09:19:10;4.57;;;3.87;;
7057;SDS011;3570;43.080;25.628;2023-08-06T09:22:01;4.70;;;3.97;;
7057;SDS011;3570;43.080;25.628;2023-08-06T09:24:46;4.27;;;3.87;;
7057;SDS011;3570;43.080;25.628;2023-08-06T09:27:30;4.97;;;3.27;;
7057;SDS011;3570;43.080;25.628;2023-08-06T09:30:14;6.87;;;3.40;;
7057;SDS011;3570;43.080;25.628;2023-08-06T09:33:17;3.43;;;2.77;;
7057;SDS011;3570;43.080;25.628;2023-08-06T09:36:09;3.40;;;3.07;;
7057;SDS011;3570;43.080;25.628;2023-08-06T09:38:54;3.50;;;2.97;;
7057;SDS011;3570;43.080;25.628;2023-08-06T09:41:38;3.40;;;3.00;;
7057;SDS011;3570;43.080;25.628;2023-08-06T09:44:23;4.10;;;3.30;;
7057;SDS011;3570;43.080;25.628;2023-08-06T09:47:08;3.97;;;3.20;;
7057;SDS011;3570;43.080;25.628;2023-08-06T09:49:52;3.50;;;3.20;;
7057;SDS011;3570;43.080;25.628;2023-08-06T09:52:36;3.57;;;3.20;;
7057;SDS011;3570;43.080;25.628;2023-08-06T09:55:20;3.83;;;3.00;;
7057;SDS011;3570;43.080;25.628;2023-08-06T09:58:05;5.13;;;3.77;;
7057;SDS011;3570;43.080;25.628;2023-08-06T10:00:50;4.33;;;3.17;;
7057;SDS011;3570;43.080;25.628;2023-08-06T10:03:34;3.67;;;3.23;;
7057;SDS011;3570;43.080;25.628;2023-08-06T10:06:19;3.60;;;3.30;;
7057;SDS011;3570;43.080;25.628;2023-08-06T10:09:04;4.83;;;3.13;;
7057;SDS011;3570;43.080;25.628;2023-08-06T10:11:52;3.20;;;2.90;;
7057;SDS011;3570;43.080;25.628;2023-08-06T10:14:39;2.97;;;2.70;;
7057;SDS011;3570;43.080;25.628;2023-08-06T10:17:25;4.13;;;3.00;;
7057;SDS011;3570;43.080;25.628;2023-08-06T10:20:11;4.90;;;3.40;;
7057;SDS011;3570;43.080;25.628;2023-08-06T10:23:14;4.40;;;3.80;;
7057;SDS011;3570;43.080;25.628;2023-08-06T10:25:59;3.93;;;3.00;;
7057;SDS011;3570;43.080;25.628;2023-08-06T10:28:43;3.60;;;2.87;;
7057;SDS011;3570;43.080;25.628;2023-08-06T10:32:10;3.13;;;2.83;;
7057;SDS011;3570;43.080;25.628;2023-08-06T10:34:57;4.00;;;2.90;;
7057;SDS011;3570;43.080;25.628;2023-08-06T10:37:44;4.00;;;3.00;;
7057;SDS011;3570;43.080;25.628;2023-08-06T10:40:28;4.37;;;3.30;;
7057;SDS011;3570;43.080;25.628;2023-08-06T10:43:32;3.27;;;2.80;;
7057;SDS011;3570;43.080;25.628;2023-08-06T10:46:27;4.27;;;3.10;;
7057;SDS011;3570;43.080;25.628;2023-08-06T10:49:11;3.63;;;3.07;;
7057;SDS011;3570;43.080;25.628;2023-08-06T10:51:57;4.43;;;3.53;;
7057;SDS011;3570;43.080;25.628;2023-08-06T10:54:41;3.37;;;3.00;;
7057;SDS011;3570;43.080;25.628;2023-08-06T10:57:25;3.80;;;3.20;;
7057;SDS011;3570;43.080;25.628;2023-08-06T11:00:10;3.40;;;3.03;;
7057;SDS011;3570;43.080;25.628;2023-08-06T11:02:57;4.17;;;3.23;;
7057;SDS011;3570;43.080;25.628;2023-08-06T11:05:41;7.20;;;3.50;;
7057;SDS011;3570;43.080;25.628;2023-08-06T11:08:36;4.33;;;3.40;;
7057;SDS011;3570;43.080;25.628;2023-08-06T11:11:22;3.93;;;3.37;;
7057;SDS011;3570;43.080;25.628;2023-08-06T11:14:07;0.60;;;0.60;;
7057;SDS011;3570;43.080;25.628;2023-08-06T11:17:00;0.60;;;0.60;;
7057;SDS011;3570;43.080;25.628;2023-08-06T11:19:44;0.60;;;0.60;;
7057;SDS011;3570;43.080;25.628;2023-08-06T11:22:28;0.97;;;0.97;;
7057;SDS011;3570;43.080;25.628;2023-08-06T11:25:13;0.60;;;0.60;;
7057;SDS011;3570;43.080;25.628;2023-08-06T11:27:57;0.70;;;0.70;;
7057;SDS011;3570;43.080;25.628;2023-08-06T11:30:41;0.70;;;0.70;;
7057;SDS011;3570;43.080;25.628;2023-08-06T11:33:25;3.13;;;2.20;;
7057;SDS011;3570;43.080;25.628;2023-08-06T11:36:10;0.87;;;0.87;;
7057;SDS011;3570;43.080;25.628;2023-08-06T11:38:53;0.87;;;0.87;;
7057;SDS011;3570;43.080;25.628;2023-08-06T11:41:38;0.53;;;0.53;;
7057;SDS011;3570;43.080;25.628;2023-08-06T11:44:23;0.60;;;0.60;;
7057;SDS011;3570;43.080;25.628;2023-08-06T11:47:11;0.63;;;0.63;;
7057;SDS011;3570;43.080;25.628;2023-08-06T11:49:56;0.70;;;0.70;;
7057;SDS011;3570;43.080;25.628;2023-08-06T11:52:40;0.80;;;0.80;;
7057;SDS011;3570;43.080;25.628;2023-08-06T11:55:26;0.70;;;0.70;;
7057;SDS011;3570;43.080;25.628;2023-08-06T11:58:12;0.60;;;0.60;;
7057;SDS011;3570;43.080;25.628;2023-08-06T12:00:56;0.70;;;0.70;;
7057;SDS011;3570;43.080;25.628;2023-08-06T12:03:41;0.60;;;0.60;;
7057;SDS011;3570;43.080;25.628;2023-08-06T12:06:28;0.60;;;0.60;;
7057;SDS011;3570;43.080;25.628;2023-08-06T12:09:12;0.60;;;0.60;;
7057;SDS011;3570;43.080;25.628;2023-08-06T12:11:56;0.70;;;0.70;;
7057;SDS011;3570;43.080;25.628;2023-08-06T12:14:40;0.50;;;0.50;;
7057;SDS011;3570;43.080;25.628;2023-08-06T12:17:25;0.97;;;0.97;;
7057;SDS011;3570;43.080;25.628;2023-08-06T12:20:09;0.50;;;0.50;;
7057;SDS011;3570;43.080;25.628;2023-08-06T12:22:54;0.67;;;0.67;;
7057;SDS011;3570;43.080;25.628;2023-08-06T12:25:38;1.00;;;1.00;;
7057;SDS011;3570;43.080;25.628;2023-08-06T12:28:22;0.50;;;0.50;;
7057;SDS011;3570;43.080;25.628;2023-08-06T12:31:06;0.47;;;0.47;;
7057;SDS011;3570;43.080;25.628;2023-08-06T12:33:50;0.80;;;0.80;;
7057;SDS011;3570;43.080;25.628;2023-08-06T12:36:34;4.50;;;3.00;;
7057;SDS011;3570;43.080;25.628;2023-08-06T12:39:18;4.07;;;2.50;;
7057;SDS011;3570;43.080;25.628;2023-08-06T12:42:02;2.80;;;2.20;;
7057;SDS011;3570;43.080;25.628;2023-08-06T12:44:50;2.85;;;2.53;;
7057;SDS011;3570;43.080;25.628;2023-08-06T12:47:34;2.95;;;2.28;;
7057;SDS011;3570;43.080;25.628;2023-08-06T12:50:18;2.72;;;2.35;;
7057;SDS011;3570;43.080;25.628;2023-08-06T12:53:02;2.67;;;2.08;;
7057;SDS011;3570;43.080;25.628;2023-08-06T12:55:48;1.95;;;1.80;;
7057;SDS011;3570;43.080;25.628;2023-08-06T12:58:32;2.35;;;1.80;;
7057;SDS011;3570;43.080;25.628;2023-08-06T13:01:16;3.90;;;1.85;;
7057;SDS011;3570;43.080;25.628;2023-08-06T13:03:59;1.70;;;1.52;;
7057;SDS011;3570;43.080;25.628;2023-08-06T13:06:44;2.15;;;1.95;;
7057;SDS011;3570;43.080;25.628;2023-08-06T13:09:27;1.70;;;1.60;;
7057;SDS011;3570;43.080;25.628;2023-08-06T13:12:11;3.58;;;1.70;;
7057;SDS011;3570;43.080;25.628;2023-08-06T13:14:55;1.80;;;1.70;;
7057;SDS011;3570;43.080;25.628;2023-08-06T13:17:42;2.45;;;1.90;;
7057;SDS011;3570;43.080;25.628;2023-08-06T13:20:27;2.17;;;2.00;;
7057;SDS011;3570;43.080;25.628;2023-08-06T13:23:13;2.17;;;1.90;;
7057;SDS011;3570;43.080;25.628;2023-08-06T13:25:59;1.95;;;1.80;;
7057;SDS011;3570;43.080;25.628;2023-08-06T13:28:43;2.20;;;2.00;;
7057;SDS011;3570;43.080;25.628;2023-08-06T13:31:28;1.92;;;1.77;;
7057;SDS011;3570;43.080;25.628;2023-08-06T13:34:12;2.05;;;1.85;;
7057;SDS011;3570;43.080;25.628;2023-08-06T13:36:56;2.67;;;2.47;;
7057;SDS011;3570;43.080;25.628;2023-08-06T13:39:39;2.22;;;2.03;;
7057;SDS011;3570;43.080;25.628;2023-08-06T13:42:24;2.22;;;1.90;;
7057;SDS011;3570;43.080;25.628;2023-08-06T13:45:08;2.03;;;1.88;;
7057;SDS011;3570;43.080;25.628;2023-08-06T13:47:53;2.33;;;1.80;;
7057;SDS011;3570;43.080;25.628;2023-08-06T13:50:39;2.13;;;1.80;;
7057;SDS011;3570;43.080;25.628;2023-08-06T13:53:23;2.30;;;2.03;;
7057;SDS011;3570;43.080;25.628;2023-08-06T13:56:13;2.55;;;2.22;;
7057;SDS011;3570;43.080;25.628;2023-08-06T13:59:01;2.42;;;2.22;;
7057;SDS011;3570;43.080;25.628;2023-08-06T14:01:45;2.13;;;1.95;;
7057;SDS011;3570;43.080;25.628;2023-08-06T14:04:29;4.20;;;1.73;;
7057;SDS011;3570;43.080;25.628;2023-08-06T14:07:14;2.70;;;2.50;;
7057;SDS011;3570;43.080;25.628;2023-08-06T14:09:58;2.67;;;2.15;;
7057;SDS011;3570;43.080;25.628;2023-08-06T14:12:42;2.47;;;2.28;;
7057;SDS011;3570;43.080;25.628;2023-08-06T14:15:26;2.75;;;2.03;;
7057;SDS011;3570;43.080;25.628;2023-08-06T14:18:10;2.15;;;1.95;;
7057;SDS011;3570;43.080;25.628;2023-08-06T14:20:54;2.20;;;2.00;;
7057;SDS011;3570;43.080;25.628;2023-08-06T14:23:39;1.98;;;1.88;;
7057;SDS011;3570;43.080;25.628;2023-08-06T14:26:25;2.22;;;1.92;;
7057;SDS011;3570;43.080;25.628;2023-08-06T14:29:09;2.55;;;1.98;;
7057;SDS011;3570;43.080;25.628;2023-08-06T14:31:52;2.03;;;1.83;;
7057;SDS011;3570;43.080;25.628;2023-08-06T14:34:36;2.10;;;1.90;;
7057;SDS011;3570;43.080;25.628;2023-08-06T14:37:20;3.08;;;1.98;;
7057;SDS011;3570;43.080;25.628;2023-08-06T14:40:05;2.50;;;2.13;;
7057;SDS011;3570;43.080;25.628;2023-08-06T14:42:50;3.90;;;2.47;;
7057;SDS011;3570;43.080;25.628;2023-08-06T14:45:37;2.10;;;1.95;;
7057;SDS011;3570;43.080;25.628;2023-08-06T14:48:22;1.80;;;1.70;;
7057;SDS011;3570;43.080;25.628;2023-08-06T14:51:06;2.20;;;2.00;;
7057;SDS011;3570;43.080;25.628;2023-08-06T14:53:50;2.05;;;1.85;;
7057;SDS011;3570;43.080;25.628;2023-08-06T14:56:34;2.50;;;2.30;;
7057;SDS011;3570;43.080;25.628;2023-08-06T14:59:18;2.47;;;2.28;;
7057;SDS011;3570;43.080;25.628;2023-08-06T15:02:02;2.42;;;2.22;;
7057;SDS011;3570;43.080;25.628;2023-08-06T15:04:47;2.15;;;1.95;;
7057;SDS011;3570;43.080;25.628;2023-08-06T15:07:31;2.42;;;2.22;;
7057;SDS011;3570;43.080;25.628;2023-08-06T15:10:19;1.88;;;1.77;;
7057;SDS011;3570;43.080;25.628;2023-08-06T15:13:03;2.00;;;1.90;;
7057;SDS011;3570;43.080;25.628;2023-08-06T15:15:48;1.65;;;1.55;;
7057;SDS011;3570;43.080;25.628;2023-08-06T15:18:32;2.20;;;2.00;;
7057;SDS011;3570;43.080;25.628;2023-08-06T15:21:17;2.10;;;1.90;;
7057;SDS011;3570;43.080;25.628;2023-08-06T15:24:00;1.83;;;1.73;;
7057;SDS011;3570;43.080;25.628;2023-08-06T15:26:44;2.10;;;1.85;;
7057;SDS011;3570;43.080;25.628;2023-08-06T15:29:28;2.50;;;2.15;;
7057;SDS011;3570;43.080;25.628;2023-08-06T15:32:12;2.40;;;2.20;;
7057;SDS011;3570;43.080;25.628;2023-08-06T15:34:57;3.20;;;2.10;;
7057;SDS011;3570;43.080;25.628;2023-08-06T15:37:41;2.88;;;2.25;;
7057;SDS011;3570;43.080;25.628;2023-08-06T15:40:25;2.08;;;1.90;;
7057;SDS011;3570;43.080;25.628;2023-08-06T15:43:10;2.17;;;1.98;;
7057;SDS011;3570;43.080;25.628;2023-08-06T15:45:54;2.90;;;2.08;;
7057;SDS011;3570;43.080;25.628;2023-08-06T15:48:38;1.80;;;1.70;;
7057;SDS011;3570;43.080;25.628;2023-08-06T15:51:23;2.08;;;1.90;;
7057;SDS011;3570;43.080;25.628;2023-08-06T15:54:07;2.10;;;1.90;;
7057;SDS011;3570;43.080;25.628;2023-08-06T15:56:51;2.05;;;1.85;;
7057;SDS011;3570;43.080;25.628;2023-08-06T15:59:35;2.10;;;1.90;;
7057;SDS011;3570;43.080;25.628;2023-08-06T16:02:19;2.25;;;1.92;;
7057;SDS011;3570;43.080;25.628;2023-08-06T16:05:03;1.98;;;1.77;;
7057;SDS011;3570;43.080;25.628;2023-08-06T16:07:49;2.28;;;1.90;;
7057;SDS011;3570;43.080;25.628;2023-08-06T16:10:34;2.50;;;2.30;;
7057;SDS011;3570;43.080;25.628;2023-08-06T16:13:21;2.30;;;2.10;;
7057;SDS011;3570;43.080;25.628;2023-08-06T16:16:04;2.15;;;1.92;;
7057;SDS011;3570;43.080;25.628;2023-08-06T16:18:48;2.88;;;2.28;;
7057;SDS011;3570;43.080;25.628;2023-08-06T16:21:32;2.40;;;2.20;;
7057;SDS011;3570;43.080;25.628;2023-08-06T16:24:16;2.30;;;2.00;;
7057;SDS011;3570;43.080;25.628;2023-08-06T16:27:00;2.30;;;2.10;;
7057;SDS011;3570;43.080;25.628;2023-08-06T16:29:45;4.45;;;3.00;;
7057;SDS011;3570;43.080;25.628;2023-08-06T16:32:31;2.78;;;2.30;;
7057;SDS011;3570;43.080;25.628;2023-08-06T16:35:16;3.83;;;2.45;;
7057;SDS011;3570;43.080;25.628;2023-08-06T16:38:01;3.53;;;2.63;;
7057;SDS011;3570;43.080;25.628;2023-08-06T16:40:55;2.60;;;2.40;;
7057;SDS011;3570;43.080;25.628;2023-08-06T16:43:40;2.40;;;2.20;;
7057;SDS011;3570;43.080;25.628;2023-08-06T16:46:24;3.60;;;3.17;;
7057;SDS011;3570;43.080;25.628;2023-08-06T16:49:08;2.80;;;2.60;;
7057;SDS011;3570;43.080;25.628;2023-08-06T16:51:52;3.80;;;3.40;;